Plattsburgh, New York
Current Conditions -  °F | °C
As of 3:53 PM on Tuesday 21 Oct 2014 (Local Time) from KPBG Reporting Station
Light Rain Light Rain  
Wind Chill: 41°   Ceiling: 700
Heat Index: 46°   Visibility: 5mi
Dew Point: 45°   Wind: 12mph
Humidity: 96%   Direction: 350°N
Pressure: 30"   Gusts: NA
Location:  44.7°N, 73.45°W
Report Text: KPBG 211953Z AUTO 35010KT 5SM -RA BR OVC007 08/07 A3000 RMK AO2 SLP161 P0000 T00780072
Loading
Personal Weather Stations






























Interactive Weather Map New forecast layout! Learn more

10-Day Weather Forecast

Advertisements
Track Severe Weather on mobile